sensor_id;sensor_type;location;lat;lon;timestamp;pressure;altitude;pressure_sealevel;temperature;humidity
70468;BME280;57934;51.532;7.684;2023-03-20T00:02:01;100597.16;;;10.66;87.53
70468;BME280;57934;51.532;7.684;2023-03-20T00:04:28;100592.81;;;10.59;87.77
70468;BME280;57934;51.532;7.684;2023-03-20T00:06:54;100588.72;;;10.56;88.07
70468;BME280;57934;51.532;7.684;2023-03-20T00:09:20;100590.19;;;10.59;88.03
70468;BME280;57934;51.532;7.684;2023-03-20T00:11:48;100597.66;;;10.55;88.28
70468;BME280;57934;51.532;7.684;2023-03-20T00:14:17;100597.84;;;10.54;88.45
70468;BME280;57934;51.532;7.684;2023-03-20T00:16:46;100606.28;;;10.49;88.43
70468;BME280;57934;51.532;7.684;2023-03-20T00:19:17;100603.41;;;10.44;88.13
70468;BME280;57934;51.532;7.684;2023-03-20T00:21:44;100612.22;;;10.36;89.02
70468;BME280;57934;51.532;7.684;2023-03-20T00:24:13;100608.94;;;10.19;89.93
70468;BME280;57934;51.532;7.684;2023-03-20T00:26:41;100610.56;;;10.06;91.44
70468;BME280;57934;51.532;7.684;2023-03-20T00:29:14;100606.94;;;9.92;92.10
70468;BME280;57934;51.532;7.684;2023-03-20T00:31:44;100626.09;;;9.86;92.66
70468;BME280;57934;51.532;7.684;2023-03-20T00:34:12;100616.75;;;9.83;93.30
70468;BME280;57934;51.532;7.684;2023-03-20T00:36:39;100618.72;;;9.81;92.97
70468;BME280;57934;51.532;7.684;2023-03-20T00:39:05;100617.19;;;9.87;92.92
70468;BME280;57934;51.532;7.684;2023-03-20T00:46:53;100624.44;;;9.70;93.11
70468;BME280;57934;51.532;7.684;2023-03-20T00:49:32;100621.34;;;9.66;93.23
70468;BME280;57934;51.532;7.684;2023-03-20T00:52:00;100625.16;;;9.64;92.74
70468;BME280;57934;51.532;7.684;2023-03-20T00:54:27;100622.34;;;9.65;92.37
70468;BME280;57934;51.532;7.684;2023-03-20T00:57:37;100621.81;;;9.70;92.27
70468;BME280;57934;51.532;7.684;2023-03-20T01:00:21;100616.19;;;9.73;91.30
70468;BME280;57934;51.532;7.684;2023-03-20T01:02:50;100611.28;;;9.70;90.79
70468;BME280;57934;51.532;7.684;2023-03-20T01:05:17;100616.06;;;9.66;90.44
70468;BME280;57934;51.532;7.684;2023-03-20T01:07:44;100620.44;;;9.59;90.13
70468;BME280;57934;51.532;7.684;2023-03-20T01:10:12;100627.78;;;9.64;90.57
70468;BME280;57934;51.532;7.684;2023-03-20T01:12:40;100627.44;;;9.67;89.91
70468;BME280;57934;51.532;7.684;2023-03-20T01:15:24;100620.69;;;9.64;89.51
70468;BME280;57934;51.532;7.684;2023-03-20T01:17:52;100618.88;;;9.65;89.60
70468;BME280;57934;51.532;7.684;2023-03-20T01:20:29;100612.22;;;9.54;89.10
70468;BME280;57934;51.532;7.684;2023-03-20T01:22:55;100609.78;;;9.52;88.79
70468;BME280;57934;51.532;7.684;2023-03-20T01:25:21;100611.53;;;9.60;88.53
70468;BME280;57934;51.532;7.684;2023-03-20T01:27:53;100610.41;;;9.54;88.41
70468;BME280;57934;51.532;7.684;2023-03-20T01:30:28;100610.88;;;9.58;88.41
70468;BME280;57934;51.532;7.684;2023-03-20T01:32:55;100621.78;;;9.55;88.62
70468;BME280;57934;51.532;7.684;2023-03-20T01:35:25;100619.97;;;9.55;88.63
70468;BME280;57934;51.532;7.684;2023-03-20T01:37:53;100622.75;;;9.54;88.41
70468;BME280;57934;51.532;7.684;2023-03-20T01:40:42;100623.09;;;9.51;88.27
70468;BME280;57934;51.532;7.684;2023-03-20T01:43:16;100636.00;;;9.46;88.37
70468;BME280;57934;51.532;7.684;2023-03-20T01:46:23;100638.94;;;9.28;89.11
70468;BME280;57934;51.532;7.684;2023-03-20T01:51:20;100643.47;;;9.11;90.92
70468;BME280;57934;51.532;7.684;2023-03-20T01:53:54;100644.56;;;8.94;92.03
70468;BME280;57934;51.532;7.684;2023-03-20T01:56:21;100656.16;;;8.84;93.24
70468;BME280;57934;51.532;7.684;2023-03-20T02:01:56;100657.81;;;8.77;94.25
70468;BME280;57934;51.532;7.684;2023-03-20T02:04:27;100661.44;;;8.76;94.52
70468;BME280;57934;51.532;7.684;2023-03-20T02:07:02;100656.03;;;8.78;94.66
70468;BME280;57934;51.532;7.684;2023-03-20T02:09:54;100668.31;;;8.77;94.62
70468;BME280;57934;51.532;7.684;2023-03-20T02:12:32;100654.69;;;8.82;92.61
70468;BME280;57934;51.532;7.684;2023-03-20T02:14:59;100648.28;;;8.76;91.61
70468;BME280;57934;51.532;7.684;2023-03-20T02:17:45;100643.38;;;8.73;91.17
70468;BME280;57934;51.532;7.684;2023-03-20T02:20:18;100642.88;;;8.78;91.10
70468;BME280;57934;51.532;7.684;2023-03-20T02:49:59;100656.16;;;9.07;87.58
70468;BME280;57934;51.532;7.684;2023-03-20T02:55:04;100661.50;;;8.99;87.31
70468;BME280;57934;51.532;7.684;2023-03-20T03:00:31;100648.97;;;9.01;87.38
70468;BME280;57934;51.532;7.684;2023-03-20T03:03:23;100645.25;;;8.96;87.53
70468;BME280;57934;51.532;7.684;2023-03-20T03:05:53;100653.63;;;8.91;87.94
70468;BME280;57934;51.532;7.684;2023-03-20T03:08:24;100651.31;;;8.96;88.22
70468;BME280;57934;51.532;7.684;2023-03-20T03:11:06;100656.38;;;8.98;88.09
70468;BME280;57934;51.532;7.684;2023-03-20T03:13:37;100656.84;;;9.01;87.88
70468;BME280;57934;51.532;7.684;2023-03-20T03:16:14;100664.94;;;9.00;86.88
70468;BME280;57934;51.532;7.684;2023-03-20T03:18:44;100668.78;;;8.89;87.11
70468;BME280;57934;51.532;7.684;2023-03-20T03:21:13;100676.06;;;8.79;87.76
70468;BME280;57934;51.532;7.684;2023-03-20T03:23:50;100671.94;;;8.76;88.12
70468;BME280;57934;51.532;7.684;2023-03-20T03:26:27;100675.88;;;8.80;87.95
70468;BME280;57934;51.532;7.684;2023-03-20T03:28:59;100671.56;;;8.88;87.74
70468;BME280;57934;51.532;7.684;2023-03-20T03:31:27;100675.53;;;8.83;87.22
70468;BME280;57934;51.532;7.684;2023-03-20T03:33:58;100676.88;;;8.79;87.07
70468;BME280;57934;51.532;7.684;2023-03-20T03:36:35;100686.25;;;8.74;86.73
70468;BME280;57934;51.532;7.684;2023-03-20T03:41:54;100681.66;;;8.76;86.17
70468;BME280;57934;51.532;7.684;2023-03-20T03:44:30;100670.66;;;8.72;86.11
70468;BME280;57934;51.532;7.684;2023-03-20T03:47:19;100665.09;;;8.67;85.44
70468;BME280;57934;51.532;7.684;2023-03-20T03:49:50;100663.78;;;8.63;85.77
70468;BME280;57934;51.532;7.684;2023-03-20T03:52:21;100639.16;;;8.64;85.82
70468;BME280;57934;51.532;7.684;2023-03-20T03:54:51;100634.53;;;8.66;85.43
70468;BME280;57934;51.532;7.684;2023-03-20T03:57:49;100634.59;;;8.58;85.59
70468;BME280;57934;51.532;7.684;2023-03-20T04:00:21;100629.53;;;8.48;85.45
70468;BME280;57934;51.532;7.684;2023-03-20T04:02:52;100629.72;;;8.39;85.29
70468;BME280;57934;51.532;7.684;2023-03-20T04:05:19;100624.16;;;8.33;85.05
70468;BME280;57934;51.532;7.684;2023-03-20T04:07:47;100624.16;;;8.33;85.17
70468;BME280;57934;51.532;7.684;2023-03-20T04:10:17;100625.63;;;8.28;85.25
70468;BME280;57934;51.532;7.684;2023-03-20T04:12:44;100625.28;;;8.31;84.83
70468;BME280;57934;51.532;7.684;2023-03-20T04:15:12;100629.09;;;8.28;84.70
70468;BME280;57934;51.532;7.684;2023-03-20T04:17:39;100620.72;;;8.25;84.55
70468;BME280;57934;51.532;7.684;2023-03-20T04:20:07;100603.97;;;8.26;84.15
70468;BME280;57934;51.532;7.684;2023-03-20T04:22:34;100602.22;;;8.18;84.19
70468;BME280;57934;51.532;7.684;2023-03-20T04:25:17;100613.91;;;8.07;84.24
70468;BME280;57934;51.532;7.684;2023-03-20T04:27:43;100617.50;;;8.06;84.34
70468;BME280;57934;51.532;7.684;2023-03-20T04:30:18;100621.44;;;8.02;84.46
70468;BME280;57934;51.532;7.684;2023-03-20T04:33:07;100641.31;;;8.05;84.48
70468;BME280;57934;51.532;7.684;2023-03-20T04:35:41;100635.50;;;8.18;84.08
70468;BME280;57934;51.532;7.684;2023-03-20T04:38:12;100637.16;;;8.19;83.36
70468;BME280;57934;51.532;7.684;2023-03-20T04:40:39;100633.06;;;8.16;83.38
70468;BME280;57934;51.532;7.684;2023-03-20T04:43:05;100630.75;;;8.21;83.49
70468;BME280;57934;51.532;7.684;2023-03-20T04:45:31;100631.41;;;8.23;83.44
70468;BME280;57934;51.532;7.684;2023-03-20T04:47:58;100633.88;;;8.17;83.63
70468;BME280;57934;51.532;7.684;2023-03-20T04:50:24;100632.75;;;8.11;83.81
70468;BME280;57934;51.532;7.684;2023-03-20T04:52:51;100634.56;;;8.02;84.21
70468;BME280;57934;51.532;7.684;2023-03-20T04:55:18;100626.88;;;8.01;84.52
70468;BME280;57934;51.532;7.684;2023-03-20T04:57:44;100630.13;;;8.03;84.81
70468;BME280;57934;51.532;7.684;2023-03-20T05:00:11;100619.63;;;8.03;84.57
70468;BME280;57934;51.532;7.684;2023-03-20T05:02:37;100610.13;;;8.02;84.29
70468;BME280;57934;51.532;7.684;2023-03-20T05:05:04;100609.16;;;7.95;84.21
70468;BME280;57934;51.532;7.684;2023-03-20T05:07:33;100603.91;;;7.95;84.63
70468;BME280;57934;51.532;7.684;2023-03-20T05:10:04;100605.88;;;7.93;84.51
70468;BME280;57934;51.532;7.684;2023-03-20T05:12:35;100609.81;;;7.88;84.42
70468;BME280;57934;51.532;7.684;2023-03-20T05:15:20;100604.25;;;7.92;84.74
70468;BME280;57934;51.532;7.684;2023-03-20T05:18:18;100612.44;;;7.88;84.76
70468;BME280;57934;51.532;7.684;2023-03-20T05:21:03;100600.34;;;7.79;84.74
70468;BME280;57934;51.532;7.684;2023-03-20T05:23:48;100607.72;;;7.84;85.10
70468;BME280;57934;51.532;7.684;2023-03-20T05:26:34;100614.91;;;7.82;85.08
70468;BME280;57934;51.532;7.684;2023-03-20T05:29:09;100603.94;;;7.78;85.40
70468;BME280;57934;51.532;7.684;2023-03-20T05:31:45;100619.72;;;7.70;85.52
70468;BME280;57934;51.532;7.684;2023-03-20T05:34:30;100614.47;;;7.70;85.90
70468;BME280;57934;51.532;7.684;2023-03-20T05:37:19;100604.63;;;7.72;85.91
70468;BME280;57934;51.532;7.684;2023-03-20T05:40:13;100610.84;;;7.71;85.90
70468;BME280;57934;51.532;7.684;2023-03-20T05:43:11;100618.25;;;7.76;85.61
70468;BME280;57934;51.532;7.684;2023-03-20T05:46:00;100615.94;;;7.73;85.83
70468;BME280;57934;51.532;7.684;2023-03-20T05:48:45;100619.34;;;7.81;85.93
70468;BME280;57934;51.532;7.684;2023-03-20T05:51:32;100639.38;;;7.91;85.83
70468;BME280;57934;51.532;7.684;2023-03-20T05:54:21;100639.19;;;7.92;85.25
70468;BME280;57934;51.532;7.684;2023-03-20T05:57:06;100635.75;;;7.92;84.94
70468;BME280;57934;51.532;7.684;2023-03-20T05:59:56;100632.47;;;7.89;84.80
70468;BME280;57934;51.532;7.684;2023-03-20T06:02:25;100633.31;;;7.90;84.99
70468;BME280;57934;51.532;7.684;2023-03-20T06:05:00;100631.00;;;7.87;84.72
70468;BME280;57934;51.532;7.684;2023-03-20T06:07:28;100637.88;;;7.88;84.87
70468;BME280;57934;51.532;7.684;2023-03-20T06:10:07;100640.34;;;7.89;84.58
70468;BME280;57934;51.532;7.684;2023-03-20T06:12:33;100643.97;;;7.88;84.54
70468;BME280;57934;51.532;7.684;2023-03-20T06:15:00;100641.31;;;7.88;84.50
70468;BME280;57934;51.532;7.684;2023-03-20T06:17:27;100635.75;;;7.92;84.50
70468;BME280;57934;51.532;7.684;2023-03-20T06:20:00;100640.34;;;7.89;84.38
70468;BME280;57934;51.532;7.684;2023-03-20T06:22:27;100632.63;;;7.88;84.09
70468;BME280;57934;51.532;7.684;2023-03-20T06:24:54;100634.28;;;7.89;84.10
70468;BME280;57934;51.532;7.684;2023-03-20T06:27:26;100637.06;;;7.87;84.26
70468;BME280;57934;51.532;7.684;2023-03-20T06:29:52;100646.91;;;7.85;83.88
70468;BME280;57934;51.532;7.684;2023-03-20T06:32:26;100647.56;;;7.87;84.05
70468;BME280;57934;51.532;7.684;2023-03-20T06:34:55;100646.56;;;7.97;83.94
70468;BME280;57934;51.532;7.684;2023-03-20T06:37:21;100638.84;;;8.03;83.64
70468;BME280;57934;51.532;7.684;2023-03-20T06:39:48;100639.16;;;8.08;83.25
70468;BME280;57934;51.532;7.684;2023-03-20T06:42:14;100651.47;;;8.08;82.84
70468;BME280;57934;51.532;7.684;2023-03-20T06:44:42;100651.63;;;8.15;82.72
70468;BME280;57934;51.532;7.684;2023-03-20T06:47:28;100653.25;;;8.16;82.51
70468;BME280;57934;51.532;7.684;2023-03-20T06:49:55;100658.34;;;8.17;82.70
70468;BME280;57934;51.532;7.684;2023-03-20T06:52:22;100664.25;;;8.19;82.51
70468;BME280;57934;51.532;7.684;2023-03-20T06:55:09;100667.41;;;8.15;82.11
70468;BME280;57934;51.532;7.684;2023-03-20T06:57:35;100668.84;;;8.17;82.33
70468;BME280;57934;51.532;7.684;2023-03-20T07:00:03;100665.25;;;8.18;82.25
70468;BME280;57934;51.532;7.684;2023-03-20T07:02:30;100663.09;;;8.22;82.29
70468;BME280;57934;51.532;7.684;2023-03-20T07:04:56;100669.00;;;8.24;81.94
70468;BME280;57934;51.532;7.684;2023-03-20T07:07:26;100665.06;;;8.20;82.24
70468;BME280;57934;51.532;7.684;2023-03-20T07:09:52;100669.66;;;8.26;82.39
70468;BME280;57934;51.532;7.684;2023-03-20T07:12:18;100665.38;;;8.25;81.66
70468;BME280;57934;51.532;7.684;2023-03-20T07:14:51;100681.13;;;8.25;81.85
70468;BME280;57934;51.532;7.684;2023-03-20T07:17:19;100673.63;;;8.22;81.79
70468;BME280;57934;51.532;7.684;2023-03-20T07:19:45;100686.06;;;8.36;81.46
70468;BME280;57934;51.532;7.684;2023-03-20T07:22:19;100675.06;;;8.41;80.68
70468;BME280;57934;51.532;7.684;2023-03-20T07:24:47;100673.88;;;8.51;80.71
70468;BME280;57934;51.532;7.684;2023-03-20T07:27:13;100683.16;;;8.70;79.71
70468;BME280;57934;51.532;7.684;2023-03-20T07:29:39;100689.03;;;8.80;78.50
70468;BME280;57934;51.532;7.684;2023-03-20T07:32:11;100692.59;;;8.88;78.15
70468;BME280;57934;51.532;7.684;2023-03-20T07:34:43;100697.50;;;8.99;77.77
70468;BME280;57934;51.532;7.684;2023-03-20T07:37:09;100698.94;;;9.01;77.24
70468;BME280;57934;51.532;7.684;2023-03-20T07:39:36;100710.59;;;9.07;77.13
70468;BME280;57934;51.532;7.684;2023-03-20T07:42:21;100702.56;;;9.31;76.28
70468;BME280;57934;51.532;7.684;2023-03-20T07:44:58;100706.41;;;9.44;75.02
70468;BME280;57934;51.532;7.684;2023-03-20T07:47:24;100711.69;;;9.67;74.14
70468;BME280;57934;51.532;7.684;2023-03-20T07:49:50;100705.63;;;9.81;73.68
70468;BME280;57934;51.532;7.684;2023-03-20T07:52:17;100700.69;;;10.01;72.78
70468;BME280;57934;51.532;7.684;2023-03-20T07:54:43;100688.66;;;10.21;72.01
70468;BME280;57934;51.532;7.684;2023-03-20T07:57:09;100683.50;;;10.43;70.96
70468;BME280;57934;51.532;7.684;2023-03-20T07:59:35;100686.94;;;10.58;70.80
70468;BME280;57934;51.532;7.684;2023-03-20T08:02:01;100684.38;;;10.65;70.21
70468;BME280;57934;51.532;7.684;2023-03-20T08:04:27;100687.19;;;10.78;70.31
70468;BME280;57934;51.532;7.684;2023-03-20T08:06:53;100685.94;;;10.74;69.01
70468;BME280;57934;51.532;7.684;2023-03-20T08:09:19;100688.25;;;10.84;68.78
70468;BME280;57934;51.532;7.684;2023-03-20T08:11:45;100695.47;;;10.75;68.47
70468;BME280;57934;51.532;7.684;2023-03-20T08:14:12;100695.91;;;10.79;68.11
70468;BME280;57934;51.532;7.684;2023-03-20T08:16:38;100693.09;;;10.80;67.49
70468;BME280;57934;51.532;7.684;2023-03-20T08:19:04;100697.34;;;10.96;67.14
70468;BME280;57934;51.532;7.684;2023-03-20T08:21:31;100691.28;;;11.17;65.63
70468;BME280;57934;51.532;7.684;2023-03-20T08:23:58;100700.34;;;11.51;64.69
70468;BME280;57934;51.532;7.684;2023-03-20T08:26:24;100691.50;;;11.58;63.77
70468;BME280;57934;51.532;7.684;2023-03-20T08:28:50;100692.75;;;11.62;63.38
70468;BME280;57934;51.532;7.684;2023-03-20T08:31:17;100701.09;;;11.66;63.53
70468;BME280;57934;51.532;7.684;2023-03-20T08:33:46;100704.19;;;11.69;63.34
70468;BME280;57934;51.532;7.684;2023-03-20T08:36:14;100701.91;;;11.66;63.08
70468;BME280;57934;51.532;7.684;2023-03-20T08:38:41;100713.31;;;11.45;63.25
70468;BME280;57934;51.532;7.684;2023-03-20T08:41:07;100714.19;;;11.31;63.08
70468;BME280;57934;51.532;7.684;2023-03-20T08:43:33;100713.81;;;11.19;63.82
70468;BME280;57934;51.532;7.684;2023-03-20T08:45:59;100708.19;;;11.22;63.89
70468;BME280;57934;51.532;7.684;2023-03-20T08:48:25;100711.38;;;11.18;63.12
70468;BME280;57934;51.532;7.684;2023-03-20T08:50:52;100714.59;;;11.13;62.81
70468;BME280;57934;51.532;7.684;2023-03-20T08:53:18;100717.44;;;10.97;63.37
70468;BME280;57934;51.532;7.684;2023-03-20T08:55:48;100705.88;;;10.98;63.82
70468;BME280;57934;51.532;7.684;2023-03-20T08:58:15;100720.13;;;11.18;63.75
70468;BME280;57934;51.532;7.684;2023-03-20T09:00:41;100707.16;;;11.02;63.51
70468;BME280;57934;51.532;7.684;2023-03-20T09:03:15;100723.75;;;10.81;64.27
70468;BME280;57934;51.532;7.684;2023-03-20T09:05:43;100717.84;;;10.64;64.25
70468;BME280;57934;51.532;7.684;2023-03-20T09:08:10;100721.56;;;10.55;64.13
70468;BME280;57934;51.532;7.684;2023-03-20T09:10:36;100725.66;;;10.28;65.83
70468;BME280;57934;51.532;7.684;2023-03-20T09:13:02;100718.59;;;10.43;65.45
70468;BME280;57934;51.532;7.684;2023-03-20T09:15:28;100719.03;;;10.47;64.64
70468;BME280;57934;51.532;7.684;2023-03-20T09:17:55;100726.50;;;10.43;65.10
70468;BME280;57934;51.532;7.684;2023-03-20T09:20:21;100722.78;;;10.67;64.51
70468;BME280;57934;51.532;7.684;2023-03-20T09:22:47;100714.63;;;10.84;63.97
70468;BME280;57934;51.532;7.684;2023-03-20T09:25:13;100718.56;;;10.73;63.67
70468;BME280;57934;51.532;7.684;2023-03-20T09:27:39;100711.94;;;10.62;64.29
70468;BME280;57934;51.532;7.684;2023-03-20T09:30:06;100717.84;;;10.79;63.86
70468;BME280;57934;51.532;7.684;2023-03-20T09:32:34;100712.44;;;11.02;63.11
70468;BME280;57934;51.532;7.684;2023-03-20T09:35:01;100715.50;;;11.20;62.58
70468;BME280;57934;51.532;7.684;2023-03-20T09:37:28;100716.31;;;11.21;62.62
70468;BME280;57934;51.532;7.684;2023-03-20T09:39:54;100717.31;;;11.05;62.16
70468;BME280;57934;51.532;7.684;2023-03-20T09:45:11;100726.66;;;10.86;62.90
70468;BME280;57934;51.532;7.684;2023-03-20T09:53:24;100720.28;;;11.32;62.13
70468;BME280;57934;51.532;7.684;2023-03-20T09:55:53;100723.25;;;11.07;61.92
70468;BME280;57934;51.532;7.684;2023-03-20T09:58:28;100719.34;;;11.03;62.31
70468;BME280;57934;51.532;7.684;2023-03-20T10:00:57;100715.56;;;11.12;61.86
70468;BME280;57934;51.532;7.684;2023-03-20T10:06:03;100721.53;;;10.99;61.57
70468;BME280;57934;51.532;7.684;2023-03-20T10:08:35;100716.34;;;11.06;61.00
70468;BME280;57934;51.532;7.684;2023-03-20T10:19:51;100713.09;;;10.89;61.19
70468;BME280;57934;51.532;7.684;2023-03-20T10:22:34;100719.06;;;10.98;61.11
70468;BME280;57934;51.532;7.684;2023-03-20T10:25:19;100715.25;;;11.01;60.21
70468;BME280;57934;51.532;7.684;2023-03-20T10:28:20;100716.88;;;11.16;60.45
70468;BME280;57934;51.532;7.684;2023-03-20T10:36:49;100702.31;;;11.42;59.79
70468;BME280;57934;51.532;7.684;2023-03-20T10:41:55;100699.44;;;11.22;59.82
70468;BME280;57934;51.532;7.684;2023-03-20T10:44:30;100710.66;;;11.45;59.16
70468;BME280;57934;51.532;7.684;2023-03-20T10:47:00;100700.09;;;11.45;59.17
70468;BME280;57934;51.532;7.684;2023-03-20T10:52:03;100701.66;;;11.61;56.75
70468;BME280;57934;51.532;7.684;2023-03-20T10:54:39;100691.91;;;11.83;57.08
70468;BME280;57934;51.532;7.684;2023-03-20T10:57:16;100696.06;;;12.21;56.14
70468;BME280;57934;51.532;7.684;2023-03-20T10:59:46;100685.34;;;12.29;54.79
70468;BME280;57934;51.532;7.684;2023-03-20T11:02:18;100690.91;;;12.12;55.45
70468;BME280;57934;51.532;7.684;2023-03-20T11:04:45;100693.94;;;12.09;54.74
70468;BME280;57934;51.532;7.684;2023-03-20T11:07:33;100681.22;;;11.91;55.21
70468;BME280;57934;51.532;7.684;2023-03-20T11:12:43;100676.78;;;11.99;55.42
70468;BME280;57934;51.532;7.684;2023-03-20T11:15:32;100679.50;;;12.05;56.16
70468;BME280;57934;51.532;7.684;2023-03-20T11:18:05;100679.97;;;12.15;56.03
70468;BME280;57934;51.532;7.684;2023-03-20T11:20:37;100676.34;;;12.23;56.38
70468;BME280;57934;51.532;7.684;2023-03-20T11:23:05;100674.97;;;12.34;55.61
70468;BME280;57934;51.532;7.684;2023-03-20T11:25:36;100673.53;;;12.31;54.97
70468;BME280;57934;51.532;7.684;2023-03-20T11:30:59;100664.16;;;11.94;54.81
70468;BME280;57934;51.532;7.684;2023-03-20T11:33:27;100662.06;;;12.17;54.08
70468;BME280;57934;51.532;7.684;2023-03-20T11:35:55;100669.59;;;12.21;54.04
70468;BME280;57934;51.532;7.684;2023-03-20T11:38:21;100655.78;;;12.18;53.80
70468;BME280;57934;51.532;7.684;2023-03-20T11:40:49;100659.06;;;12.27;54.07
70468;BME280;57934;51.532;7.684;2023-03-20T11:43:21;100655.16;;;12.58;54.00
70468;BME280;57934;51.532;7.684;2023-03-20T11:45:52;100649.44;;;12.54;53.88
70468;BME280;57934;51.532;7.684;2023-03-20T11:48:23;100648.09;;;12.30;53.90
70468;BME280;57934;51.532;7.684;2023-03-20T11:51:02;100643.63;;;12.31;54.20
70468;BME280;57934;51.532;7.684;2023-03-20T11:53:39;100642.78;;;12.24;54.21
70468;BME280;57934;51.532;7.684;2023-03-20T11:56:12;100646.69;;;12.34;53.97
70468;BME280;57934;51.532;7.684;2023-03-20T11:58:54;100646.16;;;12.46;54.00
70468;BME280;57934;51.532;7.684;2023-03-20T12:01:21;100643.41;;;12.67;53.26
70468;BME280;57934;51.532;7.684;2023-03-20T12:06:35;100638.34;;;12.79;53.02
70468;BME280;57934;51.532;7.684;2023-03-20T12:09:11;100636.16;;;12.89;51.94
70468;BME280;57934;51.532;7.684;2023-03-20T12:12:01;100634.66;;;12.73;52.01
70468;BME280;57934;51.532;7.684;2023-03-20T12:14:57;100633.47;;;12.34;52.50
70468;BME280;57934;51.532;7.684;2023-03-20T12:17:56;100629.84;;;12.42;52.93
70468;BME280;57934;51.532;7.684;2023-03-20T12:25:57;100631.28;;;13.12;51.12
70468;BME280;57934;51.532;7.684;2023-03-20T12:34:04;100637.31;;;12.73;50.63
70468;BME280;57934;51.532;7.684;2023-03-20T12:36:35;100636.41;;;12.53;52.21
70468;BME280;57934;51.532;7.684;2023-03-20T12:39:37;100637.97;;;12.34;51.14
70468;BME280;57934;51.532;7.684;2023-03-20T13:01:52;100640.56;;;11.71;56.48
70468;BME280;57934;51.532;7.684;2023-03-20T13:06:55;100638.56;;;11.45;57.62
70468;BME280;57934;51.532;7.684;2023-03-20T13:23:24;100647.84;;;11.19;62.14
70468;BME280;57934;51.532;7.684;2023-03-20T13:26:23;100645.97;;;10.92;63.41
70468;BME280;57934;51.532;7.684;2023-03-20T13:29:07;100643.16;;;10.79;62.42
70468;BME280;57934;51.532;7.684;2023-03-20T13:39:41;100644.06;;;11.07;61.61
70468;BME280;57934;51.532;7.684;2023-03-20T13:42:18;100644.28;;;11.06;60.04
70468;BME280;57934;51.532;7.684;2023-03-20T13:44:48;100630.66;;;10.87;60.66
70468;BME280;57934;51.532;7.684;2023-03-20T13:47:23;100628.66;;;10.89;61.09
70468;BME280;57934;51.532;7.684;2023-03-20T13:52:45;100627.53;;;10.98;60.85
70468;BME280;57934;51.532;7.684;2023-03-20T13:55:21;100627.59;;;11.27;60.30
70468;BME280;57934;51.532;7.684;2023-03-20T14:01:04;100625.91;;;11.19;60.96
70468;BME280;57934;51.532;7.684;2023-03-20T14:03:38;100622.25;;;10.98;61.32
70468;BME280;57934;51.532;7.684;2023-03-20T14:09:42;100619.94;;;10.89;61.98
70468;BME280;57934;51.532;7.684;2023-03-20T14:12:09;100612.84;;;10.89;62.13
70468;BME280;57934;51.532;7.684;2023-03-20T14:14:56;100613.13;;;10.80;61.92
70468;BME280;57934;51.532;7.684;2023-03-20T14:17:28;100619.63;;;10.62;62.77
70468;BME280;57934;51.532;7.684;2023-03-20T14:19:56;100626.00;;;10.68;63.23
70468;BME280;57934;51.532;7.684;2023-03-20T14:22:27;100614.47;;;10.54;63.53
70468;BME280;57934;51.532;7.684;2023-03-20T14:24:59;100619.38;;;10.57;63.61
70468;BME280;57934;51.532;7.684;2023-03-20T14:27:34;100612.84;;;10.38;63.39
70468;BME280;57934;51.532;7.684;2023-03-20T14:32:59;100614.03;;;10.50;63.20
70468;BME280;57934;51.532;7.684;2023-03-20T14:35:27;100611.09;;;10.60;63.60
70468;BME280;57934;51.532;7.684;2023-03-20T14:38:02;100605.72;;;10.68;63.27
70468;BME280;57934;51.532;7.684;2023-03-20T14:40:39;100604.16;;;10.74;63.48
70468;BME280;57934;51.532;7.684;2023-03-20T14:43:22;100606.94;;;10.51;64.17
70468;BME280;57934;51.532;7.684;2023-03-20T14:46:02;100600.88;;;10.36;65.36
70468;BME280;57934;51.532;7.684;2023-03-20T14:48:38;100600.94;;;10.42;65.70
70468;BME280;57934;51.532;7.684;2023-03-20T14:54:23;100593.13;;;10.34;66.80
70468;BME280;57934;51.532;7.684;2023-03-20T14:56:51;100600.66;;;10.22;68.02
70468;BME280;57934;51.532;7.684;2023-03-20T14:59:23;100588.03;;;9.88;68.35
70468;BME280;57934;51.532;7.684;2023-03-20T15:01:57;100595.25;;;9.56;70.95
70468;BME280;57934;51.532;7.684;2023-03-20T15:04:38;100600.63;;;9.25;72.88
70468;BME280;57934;51.532;7.684;2023-03-20T15:07:14;100594.03;;;9.06;74.61
70468;BME280;57934;51.532;7.684;2023-03-20T15:09:43;100594.72;;;9.00;75.60
70468;BME280;57934;51.532;7.684;2023-03-20T15:12:16;100581.19;;;8.89;75.77
70468;BME280;57934;51.532;7.684;2023-03-20T15:15:06;100589.53;;;8.92;76.79
70468;BME280;57934;51.532;7.684;2023-03-20T15:17:45;100586.09;;;8.92;77.17
70468;BME280;57934;51.532;7.684;2023-03-20T15:22:49;100575.91;;;8.89;76.60
70468;BME280;57934;51.532;7.684;2023-03-20T15:25:17;100572.34;;;8.81;75.59
70468;BME280;57934;51.532;7.684;2023-03-20T15:27:43;100579.34;;;8.66;76.44
70468;BME280;57934;51.532;7.684;2023-03-20T15:30:13;100574.72;;;8.68;78.73
70468;BME280;57934;51.532;7.684;2023-03-20T15:32:40;100578.19;;;8.69;78.16
70468;BME280;57934;51.532;7.684;2023-03-20T15:35:15;100570.50;;;8.59;79.08
70468;BME280;57934;51.532;7.684;2023-03-20T15:37:45;100573.53;;;8.48;78.26
70468;BME280;57934;51.532;7.684;2023-03-20T15:40:27;100574.31;;;8.56;79.04
70468;BME280;57934;51.532;7.684;2023-03-20T15:42:59;100571.50;;;8.58;77.77
70468;BME280;57934;51.532;7.684;2023-03-20T15:45:34;100568.94;;;8.50;78.85
70468;BME280;57934;51.532;7.684;2023-03-20T15:48:07;100569.06;;;8.56;79.62
70468;BME280;57934;51.532;7.684;2023-03-20T15:50:36;100568.63;;;8.45;79.90
70468;BME280;57934;51.532;7.684;2023-03-20T15:53:04;100566.81;;;8.37;79.40
70468;BME280;57934;51.532;7.684;2023-03-20T15:55:31;100561.34;;;8.16;79.90
70468;BME280;57934;51.532;7.684;2023-03-20T15:57:58;100563.81;;;8.09;80.92
70468;BME280;57934;51.532;7.684;2023-03-20T16:00:33;100563.63;;;8.10;81.44
70468;BME280;57934;51.532;7.684;2023-03-20T16:03:00;100558.84;;;8.14;81.92